Time;durP1;ratioP1;P1;durP2;ratioP2;P2;SDS_P1;SDS_P2;PMS_P1;PMS_P2;Temp;Humidity;BMP_temperature;BMP_pressure;BME280_temperature;BME280_humidity;BME280_pressure;Samples;Min_cycle;Max_cycle;Signal;HPM_P1;HPM_P2
2022/03/06 00:01:17;;;;;;;24.83;12.68;;;4.00;99.90;;;;;;6280808;22;20072;-90
2022/03/06 00:03:44;;;;;;;20.05;12.07;;;4.00;99.90;;;;;;6255455;22;20015;-90
2022/03/06 00:06:13;;;;;;;20.80;11.45;;;4.00;99.90;;;;;;6255846;22;20421;-91
2022/03/06 00:08:44;;;;;;;21.50;10.90;;;4.00;99.90;;;;;;6255351;22;20015;-91
2022/03/06 00:11:11;;;;;;;22.63;11.55;;;4.10;99.90;;;;;;6280572;22;20019;-89
2022/03/06 00:13:38;;;;;;;22.85;12.00;;;4.00;99.90;;;;;;6280234;22;20043;-89
2022/03/06 00:16:05;;;;;;;20.67;11.13;;;4.10;99.90;;;;;;6254986;22;20020;-91
2022/03/06 00:18:35;;;;;;;17.17;10.55;;;4.00;99.90;;;;;;6280595;22;20076;-91
2022/03/06 00:21:03;;;;;;;23.10;11.25;;;4.10;99.90;;;;;;6280405;22;20026;-90
2022/03/06 00:23:30;;;;;;;20.35;11.25;;;4.00;99.90;;;;;;6280241;22;20019;-88
2022/03/06 00:25:57;;;;;;;22.33;10.32;;;4.00;99.90;;;;;;6282564;22;20400;-89
2022/03/06 00:28:24;;;;;;;22.30;11.75;;;4.00;99.90;;;;;;6257181;22;20102;-88
2022/03/06 00:30:51;;;;;;;19.13;11.35;;;4.00;99.90;;;;;;6257111;22;20050;-88
2022/03/06 00:33:18;;;;;;;25.35;10.45;;;4.00;99.90;;;;;;6309507;22;20438;-88
2022/03/06 00:35:45;;;;;;;20.25;9.70;;;4.00;99.90;;;;;;6310222;22;20022;-91
2022/03/06 00:38:12;;;;;;;20.48;9.63;;;4.00;99.90;;;;;;6282739;22;20019;-89
2022/03/06 00:40:42;;;;;;;19.25;10.85;;;4.00;99.90;;;;;;6282927;22;20019;-88
2022/03/06 00:43:09;;;;;;;14.35;8.20;;;4.10;99.90;;;;;;6282800;22;20045;-89
2022/03/06 00:45:36;;;;;;;17.20;9.40;;;4.00;99.90;;;;;;6282965;22;20043;-89
2022/03/06 00:48:03;;;;;;;19.15;9.55;;;4.00;99.90;;;;;;6282487;22;20046;-89
2022/03/06 00:50:31;;;;;;;22.83;10.18;;;4.00;99.90;;;;;;6282398;22;20019;-88
2022/03/06 00:52:57;;;;;;;13.35;7.13;;;4.00;99.90;;;;;;6281979;22;20051;-89
2022/03/06 00:55:24;;;;;;;19.60;9.00;;;4.00;99.90;;;;;;6282147;22;20064;-90
2022/03/06 00:57:51;;;;;;;16.40;8.48;;;4.10;99.90;;;;;;6282404;22;20102;-91
2022/03/06 01:00:18;;;;;;;14.07;8.55;;;4.00;99.90;;;;;;6282521;22;20019;-90
2022/03/06 01:02:45;;;;;;;15.48;7.78;;;4.10;99.90;;;;;;6282315;22;20085;-91
2022/03/06 01:05:13;;;;;;;14.45;8.10;;;4.00;99.90;;;;;;6282718;22;20151;-91
2022/03/06 01:07:40;;;;;;;17.02;7.93;;;4.10;99.90;;;;;;6282429;22;20069;-90
2022/03/06 01:10:07;;;;;;;19.38;8.10;;;4.10;99.90;;;;;;6282691;22;20050;-90
2022/03/06 01:12:34;;;;;;;18.10;8.15;;;4.00;99.90;;;;;;6281995;22;20068;-90
2022/03/06 01:15:01;;;;;;;18.45;8.40;;;4.00;99.90;;;;;;6282473;22;20016;-90
2022/03/06 01:17:28;;;;;;;13.75;8.23;;;4.00;99.90;;;;;;6256475;22;20023;-91
2022/03/06 01:19:56;;;;;;;12.38;7.25;;;4.00;99.90;;;;;;6282683;22;20050;-91
2022/03/06 01:22:23;;;;;;;17.30;10.07;;;4.00;99.90;;;;;;6281804;22;20405;-90
2022/03/06 01:24:49;;;;;;;12.43;8.02;;;4.00;99.90;;;;;;6282145;22;20054;-89
2022/03/06 01:27:17;;;;;;;13.93;7.82;;;4.00;99.90;;;;;;6282686;22;20403;-91
2022/03/06 01:29:44;;;;;;;13.77;7.20;;;4.00;99.90;;;;;;6282609;22;20027;-89
2022/03/06 01:32:11;;;;;;;14.00;8.27;;;4.00;99.90;;;;;;6256361;22;20054;-90
2022/03/06 01:34:38;;;;;;;21.42;8.50;;;4.00;99.90;;;;;;6281760;22;20043;-90
2022/03/06 01:37:05;;;;;;;12.80;7.25;;;4.00;99.90;;;;;;6281733;22;20036;-90
2022/03/06 01:39:32;;;;;;;16.88;7.68;;;4.10;99.90;;;;;;6282095;22;20035;-89
2022/03/06 01:41:59;;;;;;;15.88;7.97;;;4.10;99.90;;;;;;6281403;22;20129;-91
2022/03/06 01:44:26;;;;;;;16.10;7.57;;;4.10;99.90;;;;;;6281959;22;20027;-89
2022/03/06 01:46:53;;;;;;;19.00;7.65;;;4.00;99.90;;;;;;6282123;22;20019;-90
2022/03/06 01:49:21;;;;;;;14.30;6.40;;;4.10;99.90;;;;;;6281970;22;20089;-91
2022/03/06 01:51:48;;;;;;;20.35;8.02;;;4.10;99.90;;;;;;6307002;22;20023;-91
2022/03/06 01:54:15;;;;;;;11.38;6.80;;;4.10;99.90;;;;;;6309246;22;20316;-90
2022/03/06 01:56:42;;;;;;;12.57;6.47;;;4.10;99.90;;;;;;6282239;22;20022;-90
2022/03/06 01:59:10;;;;;;;12.73;6.88;;;4.10;99.90;;;;;;6282299;22;20090;-91
2022/03/06 02:01:37;;;;;;;12.75;6.53;;;4.10;99.90;;;;;;6281350;22;20392;-91
2022/03/06 02:04:05;;;;;;;14.40;6.70;;;4.10;99.90;;;;;;6281645;22;20045;-90
2022/03/06 02:06:32;;;;;;;12.95;6.28;;;4.10;99.90;;;;;;6282031;22;20019;-90
2022/03/06 02:08:59;;;;;;;14.63;6.63;;;4.10;99.90;;;;;;6257008;22;20430;-90
2022/03/06 02:11:26;;;;;;;11.73;6.80;;;4.10;99.90;;;;;;6281858;22;20023;-90
2022/03/06 02:13:53;;;;;;;15.95;7.68;;;4.20;99.90;;;;;;6281666;22;20331;-90
2022/03/06 02:16:20;;;;;;;11.30;6.43;;;4.10;99.90;;;;;;6256375;22;20015;-91
2022/03/06 02:18:47;;;;;;;12.23;5.78;;;4.10;99.90;;;;;;6282293;22;20015;-90
2022/03/06 02:21:14;;;;;;;20.45;6.97;;;4.10;99.90;;;;;;6281228;22;20079;-90
2022/03/06 02:23:41;;;;;;;12.20;6.93;;;4.10;99.90;;;;;;6281274;22;20118;-90
2022/03/06 02:26:09;;;;;;;10.57;5.25;;;4.10;99.90;;;;;;6308867;22;20477;-91
2022/03/06 02:28:36;;;;;;;10.18;5.50;;;4.20;99.90;;;;;;6281586;22;20446;-89
2022/03/06 02:31:12;;;;;;;12.95;5.75;;;4.10;99.90;;;;;;6281675;22;20023;-93
2022/03/06 02:33:54;;;;;;;17.05;6.00;;;4.10;99.90;;;;;;6281716;22;20073;-94
2022/03/06 02:36:28;;;;;;;7.97;4.85;;;4.10;99.90;;;;;;6309409;22;20015;-90
2022/03/06 02:38:56;;;;;;;9.75;5.55;;;4.10;99.90;;;;;;6282178;22;20019;-92
2022/03/06 02:41:23;;;;;;;16.45;5.60;;;4.20;99.90;;;;;;6281826;22;20019;-91
2022/03/06 02:43:50;;;;;;;11.93;6.35;;;4.20;99.90;;;;;;6281804;22;20015;-91
2022/03/06 02:46:17;;;;;;;13.38;6.97;;;4.20;99.90;;;;;;6281514;22;20478;-91
2022/03/06 02:48:49;;;;;;;12.75;6.47;;;4.10;99.90;;;;;;6283210;22;20026;-90
2022/03/06 02:51:16;;;;;;;11.18;5.70;;;4.10;99.90;;;;;;6281324;22;20023;-90
2022/03/06 02:53:43;;;;;;;12.48;5.93;;;4.10;99.90;;;;;;6281357;22;20110;-91
2022/03/06 02:56:10;;;;;;;16.38;6.80;;;4.10;99.90;;;;;;6281650;22;20393;-90
2022/03/06 02:58:39;;;;;;;13.20;6.07;;;4.10;99.90;;;;;;6307469;22;20480;-91
2022/03/06 03:01:07;;;;;;;11.80;6.25;;;4.20;99.90;;;;;;6280866;22;20068;-92
2022/03/06 03:03:44;;;;;;;12.88;7.25;;;4.10;99.90;;;;;;6280978;22;20023;-90
2022/03/06 03:06:11;;;;;;;17.10;8.00;;;4.10;99.90;;;;;;6255939;22;20465;-90
2022/03/06 03:08:38;;;;;;;14.55;8.23;;;4.10;99.90;;;;;;6281053;22;20379;-91
2022/03/06 03:11:05;;;;;;;13.45;7.65;;;4.10;99.90;;;;;;6281685;22;20027;-90
2022/03/06 03:13:32;;;;;;;14.95;7.82;;;4.10;99.90;;;;;;6230428;22;20473;-91
2022/03/06 03:15:59;;;;;;;17.23;8.07;;;4.10;99.90;;;;;;6281354;22;20011;-91
2022/03/06 03:18:27;;;;;;;17.48;8.90;;;4.10;99.90;;;;;;6281554;22;20073;-92
2022/03/06 03:20:54;;;;;;;12.52;8.52;;;4.10;99.90;;;;;;6281517;22;20020;-91
2022/03/06 03:23:21;;;;;;;15.13;8.23;;;4.10;99.90;;;;;;6280760;22;20496;-92
2022/03/06 03:25:48;;;;;;;13.18;7.65;;;4.10;99.90;;;;;;6281304;22;20442;-91
2022/03/06 03:28:16;;;;;;;14.85;8.25;;;4.10;99.90;;;;;;6281437;22;20442;-91
2022/03/06 03:30:43;;;;;;;11.90;7.35;;;4.10;99.90;;;;;;6281252;22;20022;-91
2022/03/06 03:33:10;;;;;;;17.08;9.18;;;4.10;99.90;;;;;;6255198;22;20395;-91
2022/03/06 03:35:37;;;;;;;13.75;8.45;;;4.00;99.90;;;;;;6280889;22;20042;-91
2022/03/06 03:38:04;;;;;;;15.02;8.50;;;4.00;99.90;;;;;;6281202;22;20015;-92
2022/03/06 03:40:31;;;;;;;18.15;8.73;;;4.00;99.90;;;;;;6281050;22;20069;-91
2022/03/06 03:42:58;;;;;;;14.68;9.60;;;4.00;99.90;;;;;;6280496;22;20099;-91
2022/03/06 03:45:25;;;;;;;26.98;8.68;;;4.00;99.90;;;;;;6280878;22;20508;-91
2022/03/06 03:47:52;;;;;;;12.35;8.00;;;4.00;99.90;;;;;;6280397;22;20023;-91
2022/03/06 03:50:19;;;;;;;16.20;8.10;;;4.00;99.90;;;;;;6280759;22;20026;-91
2022/03/06 03:52:46;;;;;;;18.92;8.48;;;4.00;99.90;;;;;;6280565;22;20019;-91
2022/03/06 03:55:13;;;;;;;14.30;8.05;;;4.00;99.90;;;;;;6280859;22;20020;-90
2022/03/06 03:57:40;;;;;;;13.40;8.00;;;4.00;99.90;;;;;;6280094;22;20705;-90
2022/03/06 04:00:09;;;;;;;12.65;6.78;;;4.00;99.90;;;;;;6280794;22;20094;-91
2022/03/06 04:02:35;;;;;;;21.10;8.32;;;4.00;99.90;;;;;;6280362;22;20464;-91
2022/03/06 04:05:04;;;;;;;14.57;7.15;;;4.00;99.90;;;;;;6280499;22;20410;-90
2022/03/06 04:07:31;;;;;;;13.30;6.72;;;4.00;99.90;;;;;;6254866;22;20023;-91
2022/03/06 04:09:58;;;;;;;12.95;6.80;;;4.10;99.90;;;;;;6280890;22;20129;-91
2022/03/06 04:12:25;;;;;;;13.05;6.80;;;4.10;99.90;;;;;;6281046;22;20046;-90
2022/03/06 04:14:52;;;;;;;8.30;4.30;;;4.00;99.90;;;;;;6280578;22;20015;-91
2022/03/06 04:17:19;;;;;;;5.50;4.00;;;4.00;99.90;;;;;;6255212;22;20011;-91
2022/03/06 04:19:46;;;;;;;7.05;3.03;;;4.00;99.90;;;;;;6255058;22;20042;-91
2022/03/06 04:22:12;;;;;;;4.63;2.50;;;4.00;99.90;;;;;;6280519;22;20008;-91
2022/03/06 04:24:39;;;;;;;7.28;3.58;;;4.00;99.90;;;;;;6280836;22;20016;-90
2022/03/06 04:27:07;;;;;;;4.82;2.85;;;4.00;99.90;;;;;;6280905;22;20015;-90
2022/03/06 04:29:34;;;;;;;5.00;2.58;;;3.90;99.90;;;;;;6280610;22;20019;-91
2022/03/06 04:32:00;;;;;;;5.93;2.83;;;4.00;99.90;;;;;;6280537;22;20019;-92
2022/03/06 04:34:27;;;;;;;5.53;2.95;;;4.10;99.90;;;;;;6280842;22;20457;-90
2022/03/06 04:36:55;;;;;;;6.55;3.17;;;4.00;99.90;;;;;;6281367;22;20026;-91
2022/03/06 04:39:22;;;;;;;7.68;3.00;;;4.00;99.90;;;;;;6280941;22;20015;-91
2022/03/06 04:41:49;;;;;;;6.82;2.30;;;4.00;99.90;;;;;;6306206;22;20019;-93
2022/03/06 04:44:16;;;;;;;4.35;2.08;;;4.00;99.90;;;;;;6280947;22;20023;-90
2022/03/06 04:46:43;;;;;;;6.22;2.38;;;4.00;99.90;;;;;;6280490;22;20049;-90
2022/03/06 04:49:11;;;;;;;4.32;2.17;;;3.90;99.90;;;;;;6280346;22;20450;-91
2022/03/06 04:51:38;;;;;;;3.53;2.45;;;4.00;99.90;;;;;;6280798;22;20046;-91
2022/03/06 04:54:05;;;;;;;2.42;1.90;;;4.00;99.90;;;;;;6280694;22;20091;-91
2022/03/06 04:56:33;;;;;;;5.28;2.60;;;4.00;99.90;;;;;;6280169;22;20069;-92
2022/03/06 04:59:00;;;;;;;4.22;2.20;;;4.00;99.90;;;;;;6280955;22;20015;-92
2022/03/06 05:01:27;;;;;;;5.43;2.17;;;4.00;99.90;;;;;;6280675;22;20434;-91
2022/03/06 05:03:56;;;;;;;6.93;2.53;;;4.00;99.90;;;;;;6280797;22;20022;-92
2022/03/06 05:06:23;;;;;;;2.28;1.85;;;4.00;99.90;;;;;;6280584;22;20023;-91
2022/03/06 05:08:50;;;;;;;5.65;2.17;;;4.00;99.90;;;;;;6281071;22;20027;-91
2022/03/06 05:11:17;;;;;;;3.53;2.08;;;4.00;99.90;;;;;;6282742;22;20026;-92
2022/03/06 05:13:44;;;;;;;5.18;2.22;;;4.00;99.90;;;;;;6282086;22;20019;-91
2022/03/06 05:16:11;;;;;;;2.35;1.67;;;3.90;99.90;;;;;;6282361;22;20403;-92
2022/03/06 05:18:39;;;;;;;3.60;1.67;;;3.90;99.90;;;;;;6282497;22;20073;-90
2022/03/06 05:21:06;;;;;;;6.78;3.47;;;3.90;99.90;;;;;;6282310;22;20501;-91
2022/03/06 05:23:33;;;;;;;12.05;5.78;;;3.90;99.90;;;;;;6308395;22;20026;-91
2022/03/06 05:26:01;;;;;;;11.13;5.13;;;3.90;99.90;;;;;;6282252;22;20410;-92
2022/03/06 05:28:28;;;;;;;8.40;5.32;;;3.80;99.90;;;;;;6282261;22;20472;-91
2022/03/06 05:30:55;;;;;;;8.63;4.65;;;3.80;99.90;;;;;;6282236;22;20019;-91
2022/03/06 05:33:22;;;;;;;8.95;4.68;;;3.80;99.90;;;;;;6281529;22;20015;-89
2022/03/06 05:35:49;;;;;;;14.13;5.05;;;3.80;99.90;;;;;;6281657;22;20027;-89
2022/03/06 05:38:17;;;;;;;8.15;3.72;;;3.80;99.90;;;;;;6282241;22;20064;-91
2022/03/06 05:40:44;;;;;;;9.60;4.78;;;3.80;99.90;;;;;;6309492;22;20045;-90
2022/03/06 05:43:11;;;;;;;9.85;4.28;;;3.70;99.90;;;;;;6282002;22;20019;-90
2022/03/06 05:45:38;;;;;;;7.03;3.38;;;3.70;99.90;;;;;;6282199;22;20253;-91
2022/03/06 05:48:06;;;;;;;6.15;3.45;;;3.70;99.90;;;;;;6282625;22;20023;-90
2022/03/06 05:50:32;;;;;;;8.55;4.05;;;3.70;99.90;;;;;;6282656;22;20086;-90
2022/03/06 05:52:59;;;;;;;8.35;3.45;;;3.70;99.90;;;;;;6255999;22;20021;-91
2022/03/06 05:55:26;;;;;;;5.93;3.75;;;3.80;99.90;;;;;;6282017;22;20019;-90
2022/03/06 05:57:53;;;;;;;7.35;3.92;;;3.70;99.90;;;;;;6282518;22;20069;-91
2022/03/06 06:00:20;;;;;;;7.88;3.13;;;3.70;99.90;;;;;;6281856;22;20015;-90
2022/03/06 06:02:47;;;;;;;6.03;3.58;;;3.80;99.90;;;;;;6281418;22;20019;-90
2022/03/06 06:05:17;;;;;;;10.43;4.32;;;3.90;99.90;;;;;;6281876;22;20019;-90
2022/03/06 06:07:44;;;;;;;8.60;4.00;;;3.70;99.90;;;;;;6281901;22;20089;-90
2022/03/06 06:10:11;;;;;;;5.07;3.25;;;3.70;99.90;;;;;;6255624;22;20495;-90
2022/03/06 06:12:38;;;;;;;8.27;4.18;;;3.70;99.90;;;;;;6281219;22;20444;-90
2022/03/06 06:15:06;;;;;;;5.30;3.22;;;3.70;99.90;;;;;;6281634;22;20049;-89
2022/03/06 06:17:34;;;;;;;10.60;3.20;;;3.60;99.90;;;;;;6281397;22;20400;-90
2022/03/06 06:20:04;;;;;;;6.28;2.50;;;3.60;99.90;;;;;;6281179;22;20047;-89
2022/03/06 06:22:31;;;;;;;7.32;3.50;;;3.70;99.90;;;;;;6281058;22;20048;-91
2022/03/06 06:24:58;;;;;;;6.78;2.20;;;3.70;99.90;;;;;;6281878;22;20023;-91
2022/03/06 06:27:26;;;;;;;7.70;3.45;;;3.70;99.90;;;;;;6282279;22;20023;-91
2022/03/06 06:29:54;;;;;;;5.20;3.35;;;3.60;99.90;;;;;;6282679;22;20015;-90
2022/03/06 06:32:21;;;;;;;9.10;2.67;;;3.60;99.90;;;;;;6280375;22;20114;-90
2022/03/06 06:34:48;;;;;;;3.58;2.47;;;3.70;99.90;;;;;;6278049;22;20019;-90
2022/03/06 06:37:15;;;;;;;8.15;3.10;;;3.70;99.90;;;;;;6281438;22;20015;-90
2022/03/06 06:39:42;;;;;;;5.50;2.30;;;3.70;99.90;;;;;;6281186;22;20077;-90
2022/03/06 06:42:10;;;;;;;6.78;3.40;;;3.70;99.90;;;;;;6306970;22;20102;-90
2022/03/06 06:44:37;;;;;;;5.15;2.50;;;3.60;99.90;;;;;;6280997;22;20042;-90
2022/03/06 06:47:04;;;;;;;3.72;2.30;;;3.60;99.90;;;;;;6306889;22;20358;-90
2022/03/06 06:49:31;;;;;;;7.75;2.33;;;3.60;99.90;;;;;;6281228;22;20023;-90
2022/03/06 06:51:58;;;;;;;4.43;2.03;;;3.60;99.90;;;;;;6281067;22;20323;-90
2022/03/06 06:54:25;;;;;;;5.20;2.10;;;3.70;99.90;;;;;;6281528;22;20047;-91
2022/03/06 06:56:53;;;;;;;3.70;2.17;;;3.60;99.90;;;;;;6281259;22;20102;-89
2022/03/06 06:59:20;;;;;;;5.40;1.40;;;3.80;99.90;;;;;;6281407;22;20090;-91
2022/03/06 07:01:46;;;;;;;4.35;1.70;;;3.70;99.90;;;;;;6308391;22;20407;-90
2022/03/06 07:04:14;;;;;;;4.13;1.58;;;3.70;99.90;;;;;;6281489;22;20464;-91
2022/03/06 07:06:41;;;;;;;3.15;1.50;;;3.70;99.90;;;;;;6281168;22;20026;-90
2022/03/06 07:09:08;;;;;;;5.20;1.60;;;3.80;99.90;;;;;;6308165;22;20047;-90
2022/03/06 07:11:35;;;;;;;2.55;1.73;;;3.80;99.90;;;;;;6255549;22;20391;-91
2022/03/06 07:14:02;;;;;;;1.60;1.05;;;3.70;99.90;;;;;;6255687;22;20027;-89
2022/03/06 07:16:31;;;;;;;3.05;1.08;;;3.90;99.90;;;;;;6281816;22;20023;-92
2022/03/06 07:18:58;;;;;;;3.47;1.23;;;3.60;99.90;;;;;;6281783;22;20393;-91
2022/03/06 07:21:25;;;;;;;5.18;1.60;;;3.70;99.90;;;;;;6281926;22;20039;-92
2022/03/06 07:23:58;;;;;;;3.28;1.13;;;3.60;99.90;;;;;;6255878;22;20495;-92
2022/03/06 07:26:25;;;;;;;5.18;1.33;;;3.70;99.90;;;;;;6281097;22;20065;-91
2022/03/06 07:28:57;;;;;;;4.18;1.05;;;3.60;99.90;;;;;;6281505;22;20019;-91
2022/03/06 07:31:25;;;;;;;1.98;1.40;;;3.70;99.90;;;;;;6281141;22;20019;-91
2022/03/06 07:33:52;;;;;;;1.40;0.88;;;3.70;99.90;;;;;;6255851;22;20469;-92
2022/03/06 07:36:19;;;;;;;3.55;1.13;;;3.60;99.90;;;;;;6280957;22;20109;-90
2022/03/06 07:38:46;;;;;;;2.30;1.05;;;3.60;99.90;;;;;;6281655;22;20102;-92
2022/03/06 07:41:17;;;;;;;4.20;1.27;;;3.50;99.90;;;;;;6308557;22;20396;-91
2022/03/06 07:43:45;;;;;;;3.75;1.60;;;3.60;99.90;;;;;;6256266;22;20385;-91
2022/03/06 07:46:12;;;;;;;2.50;1.25;;;3.60;99.90;;;;;;6307020;22;20073;-91
2022/03/06 07:48:53;;;;;;;1.75;1.20;;;3.70;99.90;;;;;;6245678;22;20046;-90
2022/03/06 07:51:28;;;;;;;4.72;0.80;;;3.60;99.90;;;;;;6281418;22;20062;-93
2022/03/06 07:54:23;;;;;;;4.45;1.08;;;3.70;99.90;;;;;;6309219;22;20023;-91
2022/03/06 07:57:01;;;;;;;2.80;1.30;;;3.60;99.90;;;;;;6281540;22;20015;-92
2022/03/06 07:59:45;;;;;;;2.13;1.02;;;3.70;99.90;;;;;;6283658;22;20015;-93
2022/03/06 08:02:19;;;;;;;3.13;0.90;;;3.70;99.90;;;;;;6283563;22;20012;-92
2022/03/06 08:05:00;;;;;;;2.40;0.90;;;3.70;99.90;;;;;;6308251;22;20342;-93
2022/03/06 08:07:34;;;;;;;1.55;1.00;;;3.70;99.90;;;;;;6283806;22;20019;-91
2022/03/06 08:10:04;;;;;;;4.85;1.20;;;3.70;99.90;;;;;;6285111;22;20461;-90
2022/03/06 08:12:31;;;;;;;1.45;0.77;;;3.80;99.90;;;;;;6308886;22;20411;-90
2022/03/06 08:14:58;;;;;;;5.00;1.20;;;3.80;99.90;;;;;;6255803;22;20016;-91
2022/03/06 08:17:25;;;;;;;2.38;1.35;;;3.80;99.90;;;;;;6281146;22;20025;-91
2022/03/06 08:19:53;;;;;;;3.97;1.02;;;3.90;99.90;;;;;;6281738;22;20069;-91
2022/03/06 08:22:25;;;;;;;4.00;1.77;;;4.00;99.90;;;;;;6281267;22;20023;-92
2022/03/06 08:25:06;;;;;;;3.60;1.05;;;4.00;99.90;;;;;;6281958;22;20114;-91
2022/03/06 08:27:34;;;;;;;9.25;2.40;;;4.10;99.90;;;;;;6310139;22;20030;-90
2022/03/06 08:30:02;;;;;;;4.57;1.17;;;4.00;99.90;;;;;;6285847;22;20023;-90
2022/03/06 08:32:30;;;;;;;4.20;1.38;;;4.10;99.90;;;;;;6290075;22;20015;-92
2022/03/06 08:35:00;;;;;;;4.63;1.63;;;4.10;99.90;;;;;;6315229;22;20098;-91
2022/03/06 08:37:28;;;;;;;6.35;1.08;;;4.20;99.90;;;;;;6312861;22;20452;-89
2022/03/06 08:39:55;;;;;;;3.60;1.27;;;4.10;99.90;;;;;;6269317;22;20015;-89
2022/03/06 08:42:22;;;;;;;5.10;1.60;;;4.20;99.90;;;;;;6293014;22;20012;-90
2022/03/06 08:44:49;;;;;;;3.70;1.23;;;4.20;99.90;;;;;;6289823;22;20083;-90
2022/03/06 08:47:16;;;;;;;2.72;1.08;;;4.40;99.90;;;;;;6283850;22;20051;-90
2022/03/06 08:49:43;;;;;;;4.45;1.30;;;4.30;99.90;;;;;;6285178;22;20114;-91
2022/03/06 08:52:10;;;;;;;3.30;1.52;;;4.20;99.90;;;;;;6284948;22;20466;-91
2022/03/06 08:54:38;;;;;;;3.20;1.60;;;4.20;99.90;;;;;;6284397;22;20015;-91
2022/03/06 08:57:11;;;;;;;3.22;1.25;;;4.40;99.90;;;;;;6284755;22;20337;-92
2022/03/06 08:59:41;;;;;;;2.50;1.40;;;4.40;99.90;;;;;;6286499;22;20026;-90
2022/03/06 09:02:08;;;;;;;4.55;1.30;;;4.30;99.90;;;;;;6311018;22;20084;-91
2022/03/06 09:04:36;;;;;;;4.85;1.42;;;4.30;99.90;;;;;;6283269;22;20027;-90
2022/03/06 09:07:03;;;;;;;3.17;1.23;;;4.40;99.90;;;;;;6311223;22;20015;-92
2022/03/06 09:09:30;;;;;;;1.85;1.23;;;4.20;99.90;;;;;;6285791;22;20018;-91
2022/03/06 09:11:58;;;;;;;2.53;1.30;;;4.20;99.90;;;;;;6285010;22;20023;-91
2022/03/06 09:14:25;;;;;;;3.25;1.45;;;4.20;99.90;;;;;;6285940;22;20015;-92
2022/03/06 09:16:52;;;;;;;3.33;1.60;;;4.30;99.90;;;;;;6284956;22;20015;-89
2022/03/06 09:19:20;;;;;;;6.68;2.33;;;4.30;99.90;;;;;;6258791;22;20020;-92
2022/03/06 09:21:48;;;;;;;4.95;1.50;;;4.40;99.90;;;;;;6312312;22;20020;-92
2022/03/06 09:24:15;;;;;;;2.40;1.48;;;4.20;99.90;;;;;;6282626;22;20113;-91
2022/03/06 09:26:43;;;;;;;4.50;1.23;;;4.20;99.90;;;;;;6282491;22;20400;-91
2022/03/06 09:29:10;;;;;;;4.63;1.40;;;4.30;99.90;;;;;;6282561;22;20025;-92
2022/03/06 09:31:37;;;;;;;3.00;1.92;;;4.30;99.90;;;;;;6282428;22;20027;-92
2022/03/06 09:34:04;;;;;;;6.50;1.35;;;4.30;99.90;;;;;;6282772;22;20089;-91
2022/03/06 09:36:44;;;;;;;3.92;1.27;;;4.30;99.90;;;;;;6282190;22;20015;-92
2022/03/06 09:39:13;;;;;;;2.58;1.10;;;4.30;99.90;;;;;;6282345;22;20039;-91
2022/03/06 09:41:40;;;;;;;2.78;1.05;;;4.40;99.90;;;;;;6282733;22;20019;-91
2022/03/06 09:44:25;;;;;;;7.13;1.55;;;4.50;99.90;;;;;;6282535;22;20015;-93
2022/03/06 09:47:34;;;;;;;4.55;1.60;;;4.50;99.90;;;;;;6263041;22;20023;-92
2022/03/06 09:50:13;;;;;;;7.43;1.52;;;4.50;99.90;;;;;;6284782;22;20346;-92
2022/03/06 09:52:42;;;;;;;4.70;1.33;;;4.50;99.90;;;;;;6281895;22;20392;-94
2022/03/06 09:55:12;;;;;;;3.28;1.70;;;4.50;99.90;;;;;;6281950;22;20027;-91
2022/03/06 09:57:40;;;;;;;4.13;1.52;;;4.60;99.90;;;;;;6281584;22;20019;-92
2022/03/06 10:00:09;;;;;;;2.78;1.05;;;4.40;99.90;;;;;;6282045;22;20015;-91
2022/03/06 10:03:00;;;;;;;6.10;1.63;;;4.50;99.90;;;;;;6283050;22;20011;-93
2022/03/06 10:05:39;;;;;;;3.22;1.67;;;4.40;99.90;;;;;;6282804;22;20026;-92
2022/03/06 10:08:29;;;;;;;5.10;2.22;;;4.40;99.90;;;;;;6257363;22;20327;-92
2022/03/06 10:11:11;;;;;;;4.70;1.45;;;4.30;99.90;;;;;;6274220;22;20030;-93
2022/03/06 10:13:43;;;;;;;5.40;1.38;;;4.20;99.90;;;;;;6283363;22;20019;-92
2022/03/06 10:16:18;;;;;;;5.13;1.58;;;4.30;99.90;;;;;;6309421;22;20440;-95
2022/03/06 10:18:53;;;;;;;2.75;1.60;;;4.40;99.90;;;;;;6309761;22;20048;-92
2022/03/06 10:21:29;;;;;;;4.50;2.08;;;4.50;99.90;;;;;;6282159;22;20034;-91
2022/03/06 10:23:56;;;;;;;2.85;1.55;;;4.40;99.90;;;;;;6281925;22;20113;-91
2022/03/06 10:26:28;;;;;;;5.05;1.85;;;4.40;99.90;;;;;;6282309;22;20023;-93
2022/03/06 10:29:01;;;;;;;4.53;1.67;;;4.60;99.90;;;;;;6282194;22;20444;-91
2022/03/06 10:31:30;;;;;;;;;;;4.50;99.90;;;;;;6309664;22;20019;-92
2022/03/06 10:34:00;;;;;;;8.40;1.67;;;4.60;99.90;;;;;;6255884;22;19921;-91
2022/03/06 10:36:33;;;;;;;4.95;1.48;;;4.60;99.90;;;;;;6281548;22;20094;-92
2022/03/06 10:39:00;;;;;;;3.45;1.80;;;4.70;99.90;;;;;;6281883;22;20513;-91
2022/03/06 10:41:35;;;;;;;5.82;1.80;;;4.70;99.90;;;;;;6281759;22;20011;-90
2022/03/06 10:44:08;;;;;;;6.85;1.98;;;4.70;99.90;;;;;;6281959;22;20019;-93
2022/03/06 10:47:02;;;;;;;1.95;1.23;;;4.90;99.90;;;;;;6284405;22;20446;-91
2022/03/06 10:49:51;;;;;;;2.72;1.90;;;4.80;99.90;;;;;;6232021;22;20102;-93
2022/03/06 10:52:44;;;;;;;3.08;1.38;;;4.80;99.90;;;;;;6251360;22;20098;-90
2022/03/06 10:55:11;;;;;;;2.67;1.27;;;4.80;99.90;;;;;;6282381;22;20045;-91
2022/03/06 10:57:39;;;;;;;6.70;1.63;;;4.90;99.90;;;;;;6281942;22;20015;-90
2022/03/06 11:00:07;;;;;;;3.53;1.75;;;5.00;99.90;;;;;;6281545;22;20015;-90
2022/03/06 11:02:36;;;;;;;2.95;1.65;;;5.10;99.90;;;;;;6281865;22;20454;-91
2022/03/06 11:05:03;;;;;;;2.05;1.60;;;5.10;99.90;;;;;;6281739;22;20016;-90
2022/03/06 11:07:30;;;;;;;3.00;1.70;;;5.00;99.90;;;;;;6281661;22;20349;-91
2022/03/06 11:09:58;;;;;;;4.60;1.58;;;5.10;99.90;;;;;;6257044;22;20037;-91
2022/03/06 11:12:25;;;;;;;7.05;1.50;;;5.10;99.90;;;;;;6281777;22;20023;-90
2022/03/06 11:14:53;;;;;;;3.80;1.95;;;5.10;99.90;;;;;;6281465;22;20058;-92
2022/03/06 11:17:22;;;;;;;2.95;1.63;;;5.10;99.90;;;;;;6281658;22;20069;-91
2022/03/06 11:19:49;;;;;;;3.58;1.88;;;5.10;99.90;;;;;;6281420;22;20023;-92
2022/03/06 11:22:37;;;;;;;5.22;1.63;;;5.10;99.90;;;;;;6281376;22;20023;-91
2022/03/06 11:25:10;;;;;;;6.10;1.65;;;5.30;99.90;;;;;;6281367;22;20030;-92
2022/03/06 11:28:26;;;;;;;3.85;1.58;;;5.30;99.90;;;;;;6281486;22;20031;-92
2022/03/06 11:30:58;;;;;;;4.47;2.03;;;5.50;99.90;;;;;;6255286;22;20019;-90
2022/03/06 11:33:26;;;;;;;3.53;1.63;;;5.40;99.90;;;;;;6281451;22;20046;-90
2022/03/06 11:35:53;;;;;;;4.55;1.67;;;5.60;99.90;;;;;;6280846;22;20339;-91
2022/03/06 11:38:21;;;;;;;4.70;1.83;;;5.50;99.90;;;;;;6281089;22;20035;-90
2022/03/06 11:40:49;;;;;;;4.05;2.05;;;5.60;99.90;;;;;;6280867;22;20441;-91
2022/03/06 11:43:29;;;;;;;6.35;2.20;;;5.60;99.90;;;;;;6255862;22;20042;-91
2022/03/06 11:45:59;;;;;;;6.05;2.38;;;5.60;99.90;;;;;;6281828;22;20388;-93
2022/03/06 11:48:35;;;;;;;4.80;1.90;;;5.60;99.90;;;;;;6280996;22;20045;-90
2022/03/06 11:51:23;;;;;;;3.03;1.70;;;5.70;99.90;;;;;;6281317;22;20023;-91
2022/03/06 11:54:09;;;;;;;2.40;1.48;;;5.80;99.90;;;;;;6256067;22;20109;-90
2022/03/06 11:56:38;;;;;;;4.97;1.40;;;5.70;99.90;;;;;;6280995;22;20015;-90
2022/03/06 11:59:24;;;;;;;4.55;1.20;;;5.70;99.90;;;;;;6280971;22;20027;-91
2022/03/06 12:01:55;;;;;;;3.90;1.60;;;5.80;99.90;;;;;;6281192;22;20022;-90
2022/03/06 12:04:38;;;;;;;7.90;1.92;;;5.90;99.90;;;;;;6281303;22;20019;-90
2022/03/06 12:07:07;;;;;;;3.20;1.45;;;6.00;99.90;;;;;;6281170;22;20025;-92
2022/03/06 12:09:40;;;;;;;3.72;1.33;;;6.00;99.90;;;;;;6280918;22;20099;-91
2022/03/06 12:12:08;;;;;;;2.00;1.17;;;6.00;99.90;;;;;;6305993;22;20016;-92
2022/03/06 12:14:45;;;;;;;4.53;1.40;;;6.00;99.90;;;;;;6281143;22;20019;-88
2022/03/06 12:17:12;;;;;;;1.88;1.13;;;6.00;99.90;;;;;;6280823;22;20073;-91
2022/03/06 12:19:45;;;;;;;3.55;1.38;;;6.00;99.90;;;;;;6281146;22;20073;-91
2022/03/06 12:22:14;;;;;;;2.83;1.50;;;6.10;99.90;;;;;;6283065;22;20101;-91
2022/03/06 12:24:43;;;;;;;3.70;1.58;;;6.20;99.90;;;;;;6283113;22;20020;-92
2022/03/06 12:27:11;;;;;;;2.13;1.35;;;6.30;99.90;;;;;;6257975;22;20068;-91
2022/03/06 12:29:48;;;;;;;2.55;1.60;;;6.10;99.90;;;;;;6283540;22;20102;-91
2022/03/06 12:32:27;;;;;;;8.07;1.95;;;6.30;99.90;;;;;;6283448;22;20023;-91
2022/03/06 12:35:06;;;;;;;4.85;2.53;;;6.00;99.90;;;;;;6284592;22;20046;-90
2022/03/06 12:37:38;;;;;;;4.60;1.60;;;6.00;99.90;;;;;;6282703;22;20019;-90
2022/03/06 12:40:08;;;;;;;3.97;1.42;;;6.10;99.90;;;;;;6282989;22;20026;-90
2022/03/06 12:42:37;;;;;;;5.10;1.98;;;6.30;99.90;;;;;;6257040;22;20019;-91
2022/03/06 12:45:08;;;;;;;3.63;1.13;;;6.40;99.90;;;;;;6282473;22;20501;-91
2022/03/06 12:47:39;;;;;;;3.92;1.50;;;6.50;99.90;;;;;;6282303;22;20026;-91
2022/03/06 12:50:10;;;;;;;4.40;1.42;;;6.40;99.90;;;;;;6282314;22;20027;-90
2022/03/06 12:52:37;;;;;;;2.17;1.27;;;6.40;99.90;;;;;;6282866;22;20027;-91
2022/03/06 12:55:07;;;;;;;4.60;1.20;;;6.00;99.90;;;;;;6283466;22;20019;-92
2022/03/06 12:57:39;;;;;;;3.28;1.20;;;6.00;99.90;;;;;;6282532;22;20028;-90
2022/03/06 13:00:10;;;;;;;8.85;1.77;;;6.20;99.90;;;;;;6309090;22;20011;-92
2022/03/06 13:02:37;;;;;;;2.58;1.20;;;6.10;99.90;;;;;;6307603;22;20072;-92
2022/03/06 13:05:05;;;;;;;6.70;1.63;;;6.20;99.90;;;;;;6282783;22;20035;-92